sensor_id;sensor_type;location;lat;lon;timestamp;P1;durP1;ratioP1;P2;durP2;ratioP2
71187;SDS011;58893;53.130;8.158;2022-12-15T00:01:48;14.85;;;6.68;;
71187;SDS011;58893;53.130;8.158;2022-12-15T00:04:32;14.30;;;5.97;;
71187;SDS011;58893;53.130;8.158;2022-12-15T00:07:16;17.55;;;7.10;;
71187;SDS011;58893;53.130;8.158;2022-12-15T00:10:00;15.25;;;6.90;;
71187;SDS011;58893;53.130;8.158;2022-12-15T00:12:44;11.90;;;6.75;;
71187;SDS011;58893;53.130;8.158;2022-12-15T00:15:28;18.85;;;6.95;;
71187;SDS011;58893;53.130;8.158;2022-12-15T00:18:12;18.73;;;6.05;;
71187;SDS011;58893;53.130;8.158;2022-12-15T00:20:56;24.00;;;8.45;;
71187;SDS011;58893;53.130;8.158;2022-12-15T00:23:41;16.75;;;6.97;;
71187;SDS011;58893;53.130;8.158;2022-12-15T00:26:25;16.45;;;6.85;;
71187;SDS011;58893;53.130;8.158;2022-12-15T00:29:09;14.00;;;6.60;;
71187;SDS011;58893;53.130;8.158;2022-12-15T00:31:53;12.88;;;5.60;;
71187;SDS011;58893;53.130;8.158;2022-12-15T00:34:37;20.80;;;7.43;;
71187;SDS011;58893;53.130;8.158;2022-12-15T00:37:21;13.93;;;6.32;;
71187;SDS011;58893;53.130;8.158;2022-12-15T00:40:05;11.27;;;6.40;;
71187;SDS011;58893;53.130;8.158;2022-12-15T00:42:31;16.83;;;7.40;;
71187;SDS011;58893;53.130;8.158;2022-12-15T00:44:57;27.73;;;7.27;;
71187;SDS011;58893;53.130;8.158;2022-12-15T00:47:23;23.95;;;6.75;;
71187;SDS011;58893;53.130;8.158;2022-12-15T00:49:49;14.70;;;6.37;;
71187;SDS011;58893;53.130;8.158;2022-12-15T00:52:33;15.82;;;6.40;;
71187;SDS011;58893;53.130;8.158;2022-12-15T00:55:18;17.15;;;6.93;;
71187;SDS011;58893;53.130;8.158;2022-12-15T00:58:02;20.75;;;7.20;;
71187;SDS011;58893;53.130;8.158;2022-12-15T01:00:46;12.85;;;5.57;;
71187;SDS011;58893;53.130;8.158;2022-12-15T01:03:30;21.10;;;7.95;;
71187;SDS011;58893;53.130;8.158;2022-12-15T01:06:15;16.67;;;6.43;;
71187;SDS011;58893;53.130;8.158;2022-12-15T01:09:01;22.20;;;8.55;;
71187;SDS011;58893;53.130;8.158;2022-12-15T01:11:45;13.82;;;6.55;;
71187;SDS011;58893;53.130;8.158;2022-12-15T01:14:30;15.98;;;7.20;;
71187;SDS011;58893;53.130;8.158;2022-12-15T01:17:15;19.95;;;6.15;;
71187;SDS011;58893;53.130;8.158;2022-12-15T01:20:00;16.15;;;6.45;;
71187;SDS011;58893;53.130;8.158;2022-12-15T01:25:15;25.83;;;8.07;;
71187;SDS011;58893;53.130;8.158;2022-12-15T01:27:42;20.98;;;8.40;;
71187;SDS011;58893;53.130;8.158;2022-12-15T01:30:09;20.42;;;7.50;;
71187;SDS011;58893;53.130;8.158;2022-12-15T01:32:37;15.73;;;6.72;;
71187;SDS011;58893;53.130;8.158;2022-12-15T01:35:03;16.70;;;7.37;;
71187;SDS011;58893;53.130;8.158;2022-12-15T01:37:30;10.45;;;6.03;;
71187;SDS011;58893;53.130;8.158;2022-12-15T01:39:55;17.20;;;8.20;;
71187;SDS011;58893;53.130;8.158;2022-12-15T01:42:40;18.73;;;6.55;;
71187;SDS011;58893;53.130;8.158;2022-12-15T01:47:52;17.15;;;6.43;;
71187;SDS011;58893;53.130;8.158;2022-12-15T01:50:22;20.67;;;6.75;;
71187;SDS011;58893;53.130;8.158;2022-12-15T01:52:49;11.75;;;5.90;;
71187;SDS011;58893;53.130;8.158;2022-12-15T01:55:17;14.57;;;7.30;;
71187;SDS011;58893;53.130;8.158;2022-12-15T01:57:43;12.65;;;6.25;;
71187;SDS011;58893;53.130;8.158;2022-12-15T02:00:10;18.65;;;8.00;;
71187;SDS011;58893;53.130;8.158;2022-12-15T02:02:38;16.88;;;5.70;;
71187;SDS011;58893;53.130;8.158;2022-12-15T02:05:05;12.20;;;6.95;;
71187;SDS011;58893;53.130;8.158;2022-12-15T02:07:31;17.40;;;7.05;;
71187;SDS011;58893;53.130;8.158;2022-12-15T02:09:57;21.40;;;7.83;;
71187;SDS011;58893;53.130;8.158;2022-12-15T02:15:16;17.00;;;7.00;;
71187;SDS011;58893;53.130;8.158;2022-12-15T02:28:29;15.88;;;6.10;;
71187;SDS011;58893;53.130;8.158;2022-12-15T02:31:18;18.90;;;7.05;;
71187;SDS011;58893;53.130;8.158;2022-12-15T02:34:13;12.48;;;6.43;;
71187;SDS011;58893;53.130;8.158;2022-12-15T02:36:54;12.80;;;6.28;;
71187;SDS011;58893;53.130;8.158;2022-12-15T02:39:24;15.75;;;7.40;;
71187;SDS011;58893;53.130;8.158;2022-12-15T02:41:50;16.38;;;7.55;;
71187;SDS011;58893;53.130;8.158;2022-12-15T02:57:17;12.77;;;5.85;;
71187;SDS011;58893;53.130;8.158;2022-12-15T02:59:53;13.90;;;5.88;;
71187;SDS011;58893;53.130;8.158;2022-12-15T03:02:48;16.85;;;7.50;;
71187;SDS011;58893;53.130;8.158;2022-12-15T03:05:16;17.77;;;6.50;;
71187;SDS011;58893;53.130;8.158;2022-12-15T03:07:44;16.95;;;7.25;;
71187;SDS011;58893;53.130;8.158;2022-12-15T03:10:10;12.17;;;6.90;;
71187;SDS011;58893;53.130;8.158;2022-12-15T03:12:38;11.70;;;5.72;;
71187;SDS011;58893;53.130;8.158;2022-12-15T03:15:03;13.20;;;5.80;;
71187;SDS011;58893;53.130;8.158;2022-12-15T03:17:30;17.50;;;7.75;;
71187;SDS011;58893;53.130;8.158;2022-12-15T03:19:55;18.23;;;5.50;;
71187;SDS011;58893;53.130;8.158;2022-12-15T03:22:21;13.87;;;5.70;;
71187;SDS011;58893;53.130;8.158;2022-12-15T03:24:46;16.13;;;6.50;;
71187;SDS011;58893;53.130;8.158;2022-12-15T03:27:12;13.90;;;5.77;;
71187;SDS011;58893;53.130;8.158;2022-12-15T03:29:38;23.10;;;8.00;;
71187;SDS011;58893;53.130;8.158;2022-12-15T03:32:04;19.37;;;7.63;;
71187;SDS011;58893;53.130;8.158;2022-12-15T03:34:30;15.93;;;6.20;;
71187;SDS011;58893;53.130;8.158;2022-12-15T03:36:55;12.60;;;6.27;;
71187;SDS011;58893;53.130;8.158;2022-12-15T03:39:21;13.00;;;6.00;;
71187;SDS011;58893;53.130;8.158;2022-12-15T03:41:47;13.63;;;6.53;;
71187;SDS011;58893;53.130;8.158;2022-12-15T03:44:12;15.70;;;6.10;;
71187;SDS011;58893;53.130;8.158;2022-12-15T03:46:38;16.60;;;7.43;;
71187;SDS011;58893;53.130;8.158;2022-12-15T03:49:03;16.03;;;7.37;;
71187;SDS011;58893;53.130;8.158;2022-12-15T03:51:29;20.57;;;7.03;;
71187;SDS011;58893;53.130;8.158;2022-12-15T03:53:55;9.30;;;5.20;;
71187;SDS011;58893;53.130;8.158;2022-12-15T03:56:22;17.80;;;7.10;;
71187;SDS011;58893;53.130;8.158;2022-12-15T03:58:48;19.87;;;6.60;;
71187;SDS011;58893;53.130;8.158;2022-12-15T04:03:45;11.88;;;6.55;;
71187;SDS011;58893;53.130;8.158;2022-12-15T04:06:11;15.03;;;6.03;;
71187;SDS011;58893;53.130;8.158;2022-12-15T04:08:37;14.83;;;6.10;;
71187;SDS011;58893;53.130;8.158;2022-12-15T04:11:02;19.70;;;7.13;;
71187;SDS011;58893;53.130;8.158;2022-12-15T04:13:28;14.80;;;6.53;;
71187;SDS011;58893;53.130;8.158;2022-12-15T04:15:54;10.53;;;4.77;;
71187;SDS011;58893;53.130;8.158;2022-12-15T04:18:19;9.37;;;4.97;;
71187;SDS011;58893;53.130;8.158;2022-12-15T04:20:45;12.50;;;5.67;;
71187;SDS011;58893;53.130;8.158;2022-12-15T04:23:11;13.37;;;5.20;;
71187;SDS011;58893;53.130;8.158;2022-12-15T04:25:36;17.23;;;6.90;;
71187;SDS011;58893;53.130;8.158;2022-12-15T04:28:21;10.65;;;5.32;;
71187;SDS011;58893;53.130;8.158;2022-12-15T04:31:10;15.38;;;5.00;;
71187;SDS011;58893;53.130;8.158;2022-12-15T04:34:00;18.45;;;6.53;;
71187;SDS011;58893;53.130;8.158;2022-12-15T04:36:48;13.82;;;6.22;;
71187;SDS011;58893;53.130;8.158;2022-12-15T04:39:34;12.27;;;6.25;;
71187;SDS011;58893;53.130;8.158;2022-12-15T04:42:20;10.15;;;6.25;;
71187;SDS011;58893;53.130;8.158;2022-12-15T04:45:05;15.10;;;6.10;;
71187;SDS011;58893;53.130;8.158;2022-12-15T04:47:51;12.02;;;5.93;;
71187;SDS011;58893;53.130;8.158;2022-12-15T04:50:35;15.68;;;5.90;;
71187;SDS011;58893;53.130;8.158;2022-12-15T04:53:19;14.85;;;6.85;;
71187;SDS011;58893;53.130;8.158;2022-12-15T04:56:08;12.70;;;5.80;;
71187;SDS011;58893;53.130;8.158;2022-12-15T04:58:56;10.68;;;6.00;;
71187;SDS011;58893;53.130;8.158;2022-12-15T05:01:40;23.05;;;6.53;;
71187;SDS011;58893;53.130;8.158;2022-12-15T05:04:25;14.80;;;7.50;;
71187;SDS011;58893;53.130;8.158;2022-12-15T05:07:09;10.25;;;5.57;;
71187;SDS011;58893;53.130;8.158;2022-12-15T05:09:53;13.25;;;5.80;;
71187;SDS011;58893;53.130;8.158;2022-12-15T05:12:37;26.48;;;7.15;;
71187;SDS011;58893;53.130;8.158;2022-12-15T05:15:22;10.30;;;5.28;;
71187;SDS011;58893;53.130;8.158;2022-12-15T05:18:06;13.73;;;6.05;;
71187;SDS011;58893;53.130;8.158;2022-12-15T05:20:50;13.82;;;6.18;;
71187;SDS011;58893;53.130;8.158;2022-12-15T05:23:34;15.77;;;6.85;;
71187;SDS011;58893;53.130;8.158;2022-12-15T05:26:18;10.07;;;5.88;;
71187;SDS011;58893;53.130;8.158;2022-12-15T05:29:02;13.43;;;6.40;;
71187;SDS011;58893;53.130;8.158;2022-12-15T05:31:47;13.00;;;5.93;;
71187;SDS011;58893;53.130;8.158;2022-12-15T05:34:29;12.25;;;5.40;;
71187;SDS011;58893;53.130;8.158;2022-12-15T05:36:56;15.25;;;6.85;;
71187;SDS011;58893;53.130;8.158;2022-12-15T05:39:23;12.73;;;6.63;;
71187;SDS011;58893;53.130;8.158;2022-12-15T05:41:50;11.70;;;6.80;;
71187;SDS011;58893;53.130;8.158;2022-12-15T05:44:17;16.77;;;6.45;;
71187;SDS011;58893;53.130;8.158;2022-12-15T05:46:43;12.73;;;6.03;;
71187;SDS011;58893;53.130;8.158;2022-12-15T05:49:10;14.05;;;6.47;;
71187;SDS011;58893;53.130;8.158;2022-12-15T05:51:39;10.73;;;5.72;;
71187;SDS011;58893;53.130;8.158;2022-12-15T05:54:06;11.32;;;5.72;;
71187;SDS011;58893;53.130;8.158;2022-12-15T05:56:33;9.02;;;5.00;;
71187;SDS011;58893;53.130;8.158;2022-12-15T05:58:59;14.98;;;6.25;;
71187;SDS011;58893;53.130;8.158;2022-12-15T06:01:25;13.40;;;6.10;;
71187;SDS011;58893;53.130;8.158;2022-12-15T06:03:51;16.40;;;6.38;;
71187;SDS011;58893;53.130;8.158;2022-12-15T06:06:17;17.00;;;7.30;;
71187;SDS011;58893;53.130;8.158;2022-12-15T06:08:43;13.75;;;6.18;;
71187;SDS011;58893;53.130;8.158;2022-12-15T06:11:10;15.83;;;6.73;;
71187;SDS011;58893;53.130;8.158;2022-12-15T06:13:37;10.90;;;5.70;;
71187;SDS011;58893;53.130;8.158;2022-12-15T06:16:09;8.27;;;5.37;;
71187;SDS011;58893;53.130;8.158;2022-12-15T06:18:37;12.13;;;5.90;;
71187;SDS011;58893;53.130;8.158;2022-12-15T06:23:35;10.60;;;4.88;;
71187;SDS011;58893;53.130;8.158;2022-12-15T06:26:08;10.30;;;5.35;;
71187;SDS011;58893;53.130;8.158;2022-12-15T06:28:34;13.95;;;5.72;;
71187;SDS011;58893;53.130;8.158;2022-12-15T06:31:00;15.37;;;6.10;;
71187;SDS011;58893;53.130;8.158;2022-12-15T06:33:27;13.85;;;5.70;;
71187;SDS011;58893;53.130;8.158;2022-12-15T06:35:54;15.43;;;5.60;;
71187;SDS011;58893;53.130;8.158;2022-12-15T06:38:20;13.40;;;6.35;;
71187;SDS011;58893;53.130;8.158;2022-12-15T06:40:56;11.33;;;4.93;;
71187;SDS011;58893;53.130;8.158;2022-12-15T06:43:22;11.85;;;5.05;;
71187;SDS011;58893;53.130;8.158;2022-12-15T06:45:48;12.53;;;5.77;;
71187;SDS011;58893;53.130;8.158;2022-12-15T06:48:14;13.40;;;6.35;;
71187;SDS011;58893;53.130;8.158;2022-12-15T06:50:40;9.43;;;5.73;;
71187;SDS011;58893;53.130;8.158;2022-12-15T06:53:06;14.30;;;5.93;;
71187;SDS011;58893;53.130;8.158;2022-12-15T06:55:31;13.83;;;5.87;;
71187;SDS011;58893;53.130;8.158;2022-12-15T06:57:57;9.57;;;5.57;;
71187;SDS011;58893;53.130;8.158;2022-12-15T07:00:23;15.93;;;5.40;;
71187;SDS011;58893;53.130;8.158;2022-12-15T07:02:48;14.23;;;6.10;;
71187;SDS011;58893;53.130;8.158;2022-12-15T07:05:14;13.68;;;6.50;;
71187;SDS011;58893;53.130;8.158;2022-12-15T07:07:40;7.10;;;4.00;;
71187;SDS011;58893;53.130;8.158;2022-12-15T07:10:06;11.03;;;6.40;;
71187;SDS011;58893;53.130;8.158;2022-12-15T07:12:32;16.05;;;5.40;;
71187;SDS011;58893;53.130;8.158;2022-12-15T07:14:57;16.67;;;6.37;;
71187;SDS011;58893;53.130;8.158;2022-12-15T07:17:23;12.70;;;6.03;;
71187;SDS011;58893;53.130;8.158;2022-12-15T07:19:49;12.20;;;5.70;;
71187;SDS011;58893;53.130;8.158;2022-12-15T07:22:14;12.67;;;6.00;;
71187;SDS011;58893;53.130;8.158;2022-12-15T07:24:40;12.37;;;5.07;;
71187;SDS011;58893;53.130;8.158;2022-12-15T07:27:05;13.07;;;5.20;;
71187;SDS011;58893;53.130;8.158;2022-12-15T07:29:31;13.90;;;5.43;;
71187;SDS011;58893;53.130;8.158;2022-12-15T07:31:56;19.13;;;4.90;;
71187;SDS011;58893;53.130;8.158;2022-12-15T07:34:24;14.18;;;5.72;;
71187;SDS011;58893;53.130;8.158;2022-12-15T07:36:50;10.83;;;5.77;;
71187;SDS011;58893;53.130;8.158;2022-12-15T07:39:15;13.40;;;6.23;;
71187;SDS011;58893;53.130;8.158;2022-12-15T07:41:41;9.30;;;4.70;;
71187;SDS011;58893;53.130;8.158;2022-12-15T07:44:07;13.53;;;5.43;;
71187;SDS011;58893;53.130;8.158;2022-12-15T07:46:32;9.50;;;5.60;;
71187;SDS011;58893;53.130;8.158;2022-12-15T07:48:58;11.30;;;6.20;;
71187;SDS011;58893;53.130;8.158;2022-12-15T07:51:24;13.67;;;5.27;;
71187;SDS011;58893;53.130;8.158;2022-12-15T07:53:49;13.47;;;5.40;;
71187;SDS011;58893;53.130;8.158;2022-12-15T07:56:15;11.27;;;5.90;;
71187;SDS011;58893;53.130;8.158;2022-12-15T07:58:42;11.77;;;5.15;;
71187;SDS011;58893;53.130;8.158;2022-12-15T08:01:09;10.67;;;5.97;;
71187;SDS011;58893;53.130;8.158;2022-12-15T08:03:36;11.35;;;5.03;;
71187;SDS011;58893;53.130;8.158;2022-12-15T08:06:03;13.80;;;5.63;;
71187;SDS011;58893;53.130;8.158;2022-12-15T08:08:29;9.50;;;5.30;;
71187;SDS011;58893;53.130;8.158;2022-12-15T08:10:55;9.38;;;5.13;;
71187;SDS011;58893;53.130;8.158;2022-12-15T08:13:21;17.10;;;5.93;;
71187;SDS011;58893;53.130;8.158;2022-12-15T08:15:46;14.63;;;6.03;;
71187;SDS011;58893;53.130;8.158;2022-12-15T08:18:18;11.45;;;5.40;;
71187;SDS011;58893;53.130;8.158;2022-12-15T08:20:44;9.73;;;4.37;;
71187;SDS011;58893;53.130;8.158;2022-12-15T08:23:09;12.67;;;5.43;;
71187;SDS011;58893;53.130;8.158;2022-12-15T08:25:35;12.73;;;5.23;;
71187;SDS011;58893;53.130;8.158;2022-12-15T08:28:01;7.03;;;4.77;;
71187;SDS011;58893;53.130;8.158;2022-12-15T08:30:26;27.83;;;6.97;;
71187;SDS011;58893;53.130;8.158;2022-12-15T08:32:52;9.83;;;5.40;;
71187;SDS011;58893;53.130;8.158;2022-12-15T08:35:18;9.07;;;5.80;;
71187;SDS011;58893;53.130;8.158;2022-12-15T08:37:43;17.40;;;6.07;;
71187;SDS011;58893;53.130;8.158;2022-12-15T08:40:09;15.53;;;6.57;;
71187;SDS011;58893;53.130;8.158;2022-12-15T08:42:36;21.05;;;7.35;;
71187;SDS011;58893;53.130;8.158;2022-12-15T08:45:02;9.93;;;5.70;;
71187;SDS011;58893;53.130;8.158;2022-12-15T08:47:29;15.23;;;5.00;;
71187;SDS011;58893;53.130;8.158;2022-12-15T08:49:54;14.90;;;6.07;;
71187;SDS011;58893;53.130;8.158;2022-12-15T08:52:20;14.40;;;6.20;;
71187;SDS011;58893;53.130;8.158;2022-12-15T08:54:46;12.80;;;6.43;;
71187;SDS011;58893;53.130;8.158;2022-12-15T08:57:13;14.25;;;6.28;;
71187;SDS011;58893;53.130;8.158;2022-12-15T08:59:38;16.23;;;6.60;;
71187;SDS011;58893;53.130;8.158;2022-12-15T09:02:04;14.03;;;6.17;;
71187;SDS011;58893;53.130;8.158;2022-12-15T09:04:29;12.47;;;5.43;;
71187;SDS011;58893;53.130;8.158;2022-12-15T09:06:55;16.00;;;6.70;;
71187;SDS011;58893;53.130;8.158;2022-12-15T09:09:21;12.80;;;6.20;;
71187;SDS011;58893;53.130;8.158;2022-12-15T09:11:47;18.43;;;7.17;;
71187;SDS011;58893;53.130;8.158;2022-12-15T09:14:13;17.00;;;6.93;;
71187;SDS011;58893;53.130;8.158;2022-12-15T09:16:40;14.40;;;5.90;;
71187;SDS011;58893;53.130;8.158;2022-12-15T09:19:05;19.00;;;8.13;;
71187;SDS011;58893;53.130;8.158;2022-12-15T09:21:32;14.20;;;6.80;;
71187;SDS011;58893;53.130;8.158;2022-12-15T09:23:58;16.67;;;7.53;;
71187;SDS011;58893;53.130;8.158;2022-12-15T09:26:26;14.80;;;6.90;;
71187;SDS011;58893;53.130;8.158;2022-12-15T09:28:56;15.00;;;7.00;;
71187;SDS011;58893;53.130;8.158;2022-12-15T09:31:24;19.30;;;8.70;;
71187;SDS011;58893;53.130;8.158;2022-12-15T09:33:52;12.47;;;5.87;;
71187;SDS011;58893;53.130;8.158;2022-12-15T09:36:19;16.00;;;6.90;;
71187;SDS011;58893;53.130;8.158;2022-12-15T09:38:46;11.30;;;6.77;;
71187;SDS011;58893;53.130;8.158;2022-12-15T09:43:49;16.20;;;7.33;;
71187;SDS011;58893;53.130;8.158;2022-12-15T09:52:13;10.87;;;6.40;;
71187;SDS011;58893;53.130;8.158;2022-12-15T09:54:41;15.33;;;7.47;;
71187;SDS011;58893;53.130;8.158;2022-12-15T09:57:14;13.50;;;6.97;;
71187;SDS011;58893;53.130;8.158;2022-12-15T10:07:59;15.10;;;6.17;;
71187;SDS011;58893;53.130;8.158;2022-12-15T10:10:59;17.53;;;5.47;;
71187;SDS011;58893;53.130;8.158;2022-12-15T10:15:58;15.90;;;6.67;;
71187;SDS011;58893;53.130;8.158;2022-12-15T10:18:49;11.87;;;5.67;;
71187;SDS011;58893;53.130;8.158;2022-12-15T10:21:19;22.73;;;6.20;;
71187;SDS011;58893;53.130;8.158;2022-12-15T10:23:48;13.70;;;5.53;;
71187;SDS011;58893;53.130;8.158;2022-12-15T10:26:19;20.93;;;6.10;;
71187;SDS011;58893;53.130;8.158;2022-12-15T10:31:22;16.97;;;6.20;;
71187;SDS011;58893;53.130;8.158;2022-12-15T10:33:54;14.20;;;5.90;;
71187;SDS011;58893;53.130;8.158;2022-12-15T10:36:25;16.57;;;7.57;;
71187;SDS011;58893;53.130;8.158;2022-12-15T10:38:50;12.40;;;5.80;;
71187;SDS011;58893;53.130;8.158;2022-12-15T10:41:18;14.63;;;6.17;;
71187;SDS011;58893;53.130;8.158;2022-12-15T10:43:46;12.03;;;5.97;;
71187;SDS011;58893;53.130;8.158;2022-12-15T10:46:21;30.23;;;7.27;;
71187;SDS011;58893;53.130;8.158;2022-12-15T10:51:32;10.93;;;5.00;;
71187;SDS011;58893;53.130;8.158;2022-12-15T10:54:05;9.93;;;5.27;;
71187;SDS011;58893;53.130;8.158;2022-12-15T10:56:47;11.37;;;6.00;;
71187;SDS011;58893;53.130;8.158;2022-12-15T11:01:49;11.03;;;5.60;;
71187;SDS011;58893;53.130;8.158;2022-12-15T11:04:29;11.83;;;6.37;;
71187;SDS011;58893;53.130;8.158;2022-12-15T11:06:57;13.20;;;5.70;;
71187;SDS011;58893;53.130;8.158;2022-12-15T11:09:26;16.27;;;6.80;;
71187;SDS011;58893;53.130;8.158;2022-12-15T11:12:15;15.23;;;6.97;;
71187;SDS011;58893;53.130;8.158;2022-12-15T11:15:01;10.80;;;5.53;;
71187;SDS011;58893;53.130;8.158;2022-12-15T11:17:28;20.80;;;5.87;;
71187;SDS011;58893;53.130;8.158;2022-12-15T11:20:06;10.63;;;5.40;;
71187;SDS011;58893;53.130;8.158;2022-12-15T11:22:43;11.83;;;6.00;;
71187;SDS011;58893;53.130;8.158;2022-12-15T11:25:19;16.40;;;6.10;;
71187;SDS011;58893;53.130;8.158;2022-12-15T11:27:53;13.70;;;5.57;;
71187;SDS011;58893;53.130;8.158;2022-12-15T11:30:32;16.73;;;6.50;;
71187;SDS011;58893;53.130;8.158;2022-12-15T11:33:19;7.80;;;4.73;;
71187;SDS011;58893;53.130;8.158;2022-12-15T11:38:18;13.87;;;5.77;;
71187;SDS011;58893;53.130;8.158;2022-12-15T11:46:38;10.83;;;6.33;;
71187;SDS011;58893;53.130;8.158;2022-12-15T11:49:47;12.20;;;5.63;;
71187;SDS011;58893;53.130;8.158;2022-12-15T11:52:42;15.00;;;5.73;;
71187;SDS011;58893;53.130;8.158;2022-12-15T11:55:19;11.30;;;6.50;;
71187;SDS011;58893;53.130;8.158;2022-12-15T12:03:42;10.90;;;5.40;;
71187;SDS011;58893;53.130;8.158;2022-12-15T12:11:55;9.20;;;5.50;;
71187;SDS011;58893;53.130;8.158;2022-12-15T12:14:41;18.43;;;7.07;;
71187;SDS011;58893;53.130;8.158;2022-12-15T12:19:47;19.93;;;6.10;;
71187;SDS011;58893;53.130;8.158;2022-12-15T12:22:22;9.97;;;5.37;;
71187;SDS011;58893;53.130;8.158;2022-12-15T12:27:37;13.77;;;5.93;;
71187;SDS011;58893;53.130;8.158;2022-12-15T12:30:10;16.47;;;5.50;;
71187;SDS011;58893;53.130;8.158;2022-12-15T12:32:42;10.00;;;5.30;;
71187;SDS011;58893;53.130;8.158;2022-12-15T12:43:25;10.13;;;5.10;;
71187;SDS011;58893;53.130;8.158;2022-12-15T12:49:14;11.47;;;5.17;;
71187;SDS011;58893;53.130;8.158;2022-12-15T12:51:32;13.03;;;6.00;;
71187;SDS011;58893;53.130;8.158;2022-12-15T12:54:00;8.80;;;5.30;;
71187;SDS011;58893;53.130;8.158;2022-12-15T12:56:42;11.73;;;5.80;;
71187;SDS011;58893;53.130;8.158;2022-12-15T13:05:00;19.83;;;5.30;;
71187;SDS011;58893;53.130;8.158;2022-12-15T13:07:37;10.97;;;6.10;;
71187;SDS011;58893;53.130;8.158;2022-12-15T13:12:52;15.80;;;7.00;;
71187;SDS011;58893;53.130;8.158;2022-12-15T13:17:55;9.50;;;5.70;;
71187;SDS011;58893;53.130;8.158;2022-12-15T13:20:32;11.20;;;6.37;;
71187;SDS011;58893;53.130;8.158;2022-12-15T13:44:36;11.63;;;6.83;;
71187;SDS011;58893;53.130;8.158;2022-12-15T13:47:11;18.43;;;7.20;;
71187;SDS011;58893;53.130;8.158;2022-12-15T13:49:48;12.07;;;6.80;;
71187;SDS011;58893;53.130;8.158;2022-12-15T13:52:50;12.17;;;5.50;;
71187;SDS011;58893;53.130;8.158;2022-12-15T13:55:22;14.40;;;6.90;;
71187;SDS011;58893;53.130;8.158;2022-12-15T13:57:59;24.47;;;6.97;;
71187;SDS011;58893;53.130;8.158;2022-12-15T14:00:47;13.43;;;7.60;;
71187;SDS011;58893;53.130;8.158;2022-12-15T14:03:21;18.43;;;8.00;;
71187;SDS011;58893;53.130;8.158;2022-12-15T14:05:54;17.30;;;7.40;;
71187;SDS011;58893;53.130;8.158;2022-12-15T14:08:22;18.97;;;7.43;;
71187;SDS011;58893;53.130;8.158;2022-12-15T14:13:26;13.37;;;7.20;;
71187;SDS011;58893;53.130;8.158;2022-12-15T14:16:04;16.30;;;7.13;;
71187;SDS011;58893;53.130;8.158;2022-12-15T14:18:43;12.87;;;7.10;;
71187;SDS011;58893;53.130;8.158;2022-12-15T14:21:20;13.33;;;7.00;;
71187;SDS011;58893;53.130;8.158;2022-12-15T14:23:47;13.00;;;7.40;;
71187;SDS011;58893;53.130;8.158;2022-12-15T14:26:13;13.80;;;6.90;;
71187;SDS011;58893;53.130;8.158;2022-12-15T14:28:44;14.77;;;7.43;;
71187;SDS011;58893;53.130;8.158;2022-12-15T14:33:50;19.37;;;7.20;;
71187;SDS011;58893;53.130;8.158;2022-12-15T14:36:24;20.10;;;8.43;;
71187;SDS011;58893;53.130;8.158;2022-12-15T14:38:57;16.20;;;7.80;;
71187;SDS011;58893;53.130;8.158;2022-12-15T14:41:30;15.67;;;7.60;;
71187;SDS011;58893;53.130;8.158;2022-12-15T14:44:01;13.27;;;6.63;;
71187;SDS011;58893;53.130;8.158;2022-12-15T14:46:51;18.80;;;7.27;;
71187;SDS011;58893;53.130;8.158;2022-12-15T14:49:18;12.80;;;7.07;;
71187;SDS011;58893;53.130;8.158;2022-12-15T14:51:49;11.17;;;7.03;;
71187;SDS011;58893;53.130;8.158;2022-12-15T14:54:32;16.60;;;7.87;;
71187;SDS011;58893;53.130;8.158;2022-12-15T14:57:15;15.83;;;7.60;;
71187;SDS011;58893;53.130;8.158;2022-12-15T14:59:46;15.17;;;7.03;;
71187;SDS011;58893;53.130;8.158;2022-12-15T15:05:03;20.93;;;8.30;;
71187;SDS011;58893;53.130;8.158;2022-12-15T15:07:31;14.93;;;7.43;;
71187;SDS011;58893;53.130;8.158;2022-12-15T15:09:59;14.60;;;7.00;;
71187;SDS011;58893;53.130;8.158;2022-12-15T15:12:39;13.67;;;8.40;;
71187;SDS011;58893;53.130;8.158;2022-12-15T15:15:10;17.63;;;8.47;;
71187;SDS011;58893;53.130;8.158;2022-12-15T15:20:20;13.00;;;7.27;;
71187;SDS011;58893;53.130;8.158;2022-12-15T15:28:01;19.20;;;7.80;;
71187;SDS011;58893;53.130;8.158;2022-12-15T15:30:55;21.07;;;8.10;;
71187;SDS011;58893;53.130;8.158;2022-12-15T15:33:23;19.10;;;7.47;;
71187;SDS011;58893;53.130;8.158;2022-12-15T15:35:59;20.47;;;9.20;;
71187;SDS011;58893;53.130;8.158;2022-12-15T15:43:22;19.07;;;8.57;;
71187;SDS011;58893;53.130;8.158;2022-12-15T15:45:49;24.27;;;8.40;;
71187;SDS011;58893;53.130;8.158;2022-12-15T15:48:26;19.20;;;9.03;;
71187;SDS011;58893;53.130;8.158;2022-12-15T15:50:55;19.87;;;9.00;;
71187;SDS011;58893;53.130;8.158;2022-12-15T15:53:23;20.27;;;9.27;;
71187;SDS011;58893;53.130;8.158;2022-12-15T15:55:51;23.83;;;8.67;;
71187;SDS011;58893;53.130;8.158;2022-12-15T15:58:18;16.27;;;9.10;;
71187;SDS011;58893;53.130;8.158;2022-12-15T16:00:44;20.73;;;10.40;;
71187;SDS011;58893;53.130;8.158;2022-12-15T16:03:09;21.20;;;8.53;;
71187;SDS011;58893;53.130;8.158;2022-12-15T16:05:35;19.83;;;9.00;;
71187;SDS011;58893;53.130;8.158;2022-12-15T16:08:02;17.90;;;9.33;;
71187;SDS011;58893;53.130;8.158;2022-12-15T16:10:29;21.23;;;9.47;;
71187;SDS011;58893;53.130;8.158;2022-12-15T16:12:55;18.70;;;9.47;;
71187;SDS011;58893;53.130;8.158;2022-12-15T16:15:25;26.33;;;9.00;;
71187;SDS011;58893;53.130;8.158;2022-12-15T16:17:52;18.37;;;8.97;;
71187;SDS011;58893;53.130;8.158;2022-12-15T16:20:19;14.67;;;8.47;;
71187;SDS011;58893;53.130;8.158;2022-12-15T16:22:47;17.23;;;8.23;;
71187;SDS011;58893;53.130;8.158;2022-12-15T16:25:29;20.33;;;8.80;;
71187;SDS011;58893;53.130;8.158;2022-12-15T16:28:08;15.90;;;7.80;;
71187;SDS011;58893;53.130;8.158;2022-12-15T16:30:36;15.87;;;9.07;;
71187;SDS011;58893;53.130;8.158;2022-12-15T16:33:02;23.83;;;9.77;;
71187;SDS011;58893;53.130;8.158;2022-12-15T16:35:28;18.87;;;9.60;;
71187;SDS011;58893;53.130;8.158;2022-12-15T16:37:53;20.30;;;8.27;;
71187;SDS011;58893;53.130;8.158;2022-12-15T16:40:22;24.90;;;9.17;;
71187;SDS011;58893;53.130;8.158;2022-12-15T16:42:54;14.73;;;8.13;;
71187;SDS011;58893;53.130;8.158;2022-12-15T16:45:22;17.60;;;7.60;;
71187;SDS011;58893;53.130;8.158;2022-12-15T16:47:49;15.63;;;8.47;;
71187;SDS011;58893;53.130;8.158;2022-12-15T16:50:17;23.50;;;9.80;;
71187;SDS011;58893;53.130;8.158;2022-12-15T16:52:45;18.50;;;8.80;;
71187;SDS011;58893;53.130;8.158;2022-12-15T16:55:31;16.30;;;8.80;;
71187;SDS011;58893;53.130;8.158;2022-12-15T16:58:00;16.40;;;8.50;;
71187;SDS011;58893;53.130;8.158;2022-12-15T17:00:29;18.90;;;8.87;;
71187;SDS011;58893;53.130;8.158;2022-12-15T17:02:56;23.40;;;9.50;;
71187;SDS011;58893;53.130;8.158;2022-12-15T17:05:33;24.83;;;9.60;;
71187;SDS011;58893;53.130;8.158;2022-12-15T17:08:01;18.10;;;9.33;;
71187;SDS011;58893;53.130;8.158;2022-12-15T17:10:29;17.53;;;8.53;;
71187;SDS011;58893;53.130;8.158;2022-12-15T17:13:03;18.80;;;8.97;;
71187;SDS011;58893;53.130;8.158;2022-12-15T17:15:31;27.83;;;9.47;;
71187;SDS011;58893;53.130;8.158;2022-12-15T17:17:57;20.73;;;9.50;;
71187;SDS011;58893;53.130;8.158;2022-12-15T17:20:23;17.00;;;8.40;;
71187;SDS011;58893;53.130;8.158;2022-12-15T17:22:52;19.07;;;8.97;;
71187;SDS011;58893;53.130;8.158;2022-12-15T17:25:24;17.70;;;9.03;;
71187;SDS011;58893;53.130;8.158;2022-12-15T17:28:00;21.17;;;9.60;;
71187;SDS011;58893;53.130;8.158;2022-12-15T17:30:27;19.80;;;9.20;;
71187;SDS011;58893;53.130;8.158;2022-12-15T17:32:52;20.30;;;8.80;;
71187;SDS011;58893;53.130;8.158;2022-12-15T17:35:18;19.57;;;10.47;;
71187;SDS011;58893;53.130;8.158;2022-12-15T17:37:44;31.00;;;9.60;;